createdAt,value
2019-03-31T00:02:44.797Z,9.10
2019-03-31T00:05:37.144Z,8.84
2019-03-31T00:08:24.357Z,9.01
2019-03-31T00:11:12.526Z,8.91
2019-03-31T00:14:00.861Z,9.11
2019-03-31T00:16:52.192Z,9.13
2019-03-31T00:19:38.452Z,9.11
2019-03-31T00:22:26.974Z,9.02
2019-03-31T00:25:15.495Z,8.93
2019-03-31T00:28:03.468Z,9.06
2019-03-31T00:30:52.407Z,9.01
2019-03-31T00:33:40.880Z,9.01
2019-03-31T00:36:29.092Z,8.90
2019-03-31T00:39:17.407Z,8.95
2019-03-31T00:42:05.087Z,9.01
2019-03-31T00:44:52.805Z,8.91
2019-03-31T00:47:41.047Z,8.81
2019-03-31T00:50:29.012Z,8.89
2019-03-31T00:53:16.907Z,8.75
2019-03-31T00:56:05.083Z,8.54
2019-03-31T00:58:54.031Z,8.70
2019-03-31T01:01:48.730Z,8.42
2019-03-31T01:04:36.924Z,8.34
2019-03-31T01:07:27.402Z,8.55
2019-03-31T01:10:15.718Z,8.55
2019-03-31T01:13:04.064Z,8.26
2019-03-31T01:15:53.028Z,8.08
2019-03-31T01:18:41.086Z,8.33
2019-03-31T01:21:29.124Z,8.16
2019-03-31T01:24:17.381Z,8.22
2019-03-31T01:27:06.591Z,8.50
2019-03-31T01:29:55.059Z,8.41
2019-03-31T01:32:43.533Z,8.30
2019-03-31T01:35:31.789Z,8.37
2019-03-31T01:38:20.206Z,8.35
2019-03-31T01:41:08.518Z,8.29
2019-03-31T01:43:56.918Z,8.26
2019-03-31T01:46:45.055Z,8.14
2019-03-31T01:49:32.681Z,8.07
2019-03-31T01:52:20.835Z,8.01
2019-03-31T01:55:09.710Z,7.96
2019-03-31T01:57:57.944Z,7.96
2019-03-31T02:00:51.215Z,7.91
2019-03-31T02:03:39.039Z,7.82
2019-03-31T02:06:27.205Z,7.71
2019-03-31T02:09:15.443Z,7.57
2019-03-31T02:12:03.445Z,7.52
2019-03-31T02:14:51.280Z,7.34
2019-03-31T02:17:39.515Z,7.33
2019-03-31T02:20:27.411Z,7.48
2019-03-31T02:23:15.626Z,7.67
2019-03-31T02:26:04.062Z,7.61
2019-03-31T02:28:51.760Z,7.60
2019-03-31T02:31:39.734Z,7.64
2019-03-31T02:34:28.102Z,7.69
2019-03-31T02:37:16.169Z,7.70
2019-03-31T02:40:04.692Z,7.68
2019-03-31T02:42:52.735Z,7.76
2019-03-31T02:45:40.577Z,7.76
2019-03-31T02:48:28.909Z,7.59
2019-03-31T02:51:17.157Z,7.71
2019-03-31T02:54:05.298Z,7.42
2019-03-31T02:56:54.505Z,7.41
2019-03-31T02:59:43.304Z,7.64
2019-03-31T03:02:41.421Z,7.52
2019-03-31T03:05:24.129Z,7.50
2019-03-31T03:08:14.515Z,7.45
2019-03-31T03:11:03.287Z,7.41
2019-03-31T03:13:51.467Z,7.20
2019-03-31T03:16:40.103Z,6.89
2019-03-31T03:19:28.212Z,6.88
2019-03-31T03:22:16.207Z,7.16
2019-03-31T03:25:04.029Z,7.24
2019-03-31T03:27:51.986Z,7.39
2019-03-31T03:30:40.355Z,7.37
2019-03-31T03:33:28.716Z,7.25
2019-03-31T03:36:17.482Z,7.14
2019-03-31T03:39:07.623Z,6.98
2019-03-31T03:41:55.151Z,6.83
2019-03-31T03:44:43.135Z,6.84
2019-03-31T03:47:31.598Z,6.88
2019-03-31T03:50:19.322Z,6.84
2019-03-31T03:53:07.675Z,6.69
2019-03-31T03:55:55.796Z,6.55
2019-03-31T03:58:44.078Z,6.48
2019-03-31T04:01:32.915Z,6.56
2019-03-31T04:04:21.046Z,6.46
2019-03-31T04:07:09.617Z,6.42
2019-03-31T04:09:57.884Z,6.46
2019-03-31T04:12:46.088Z,6.19
2019-03-31T04:15:33.716Z,6.21
2019-03-31T04:18:21.960Z,6.33
2019-03-31T04:21:10.040Z,6.40
2019-03-31T04:23:58.658Z,6.46
2019-03-31T04:26:46.611Z,6.50
2019-03-31T04:29:34.676Z,6.31
2019-03-31T04:32:22.766Z,6.61
2019-03-31T04:35:11.006Z,6.65
2019-03-31T04:37:59.152Z,6.65
2019-03-31T04:40:47.464Z,6.68
2019-03-31T04:43:36.210Z,6.56
2019-03-31T04:46:24.515Z,6.43
2019-03-31T04:49:12.557Z,6.41
2019-03-31T04:52:00.871Z,6.54
2019-03-31T04:54:49.303Z,6.53
2019-03-31T04:57:37.279Z,6.57
2019-03-31T05:00:25.796Z,6.55
2019-03-31T05:03:13.705Z,6.59
2019-03-31T05:06:01.930Z,6.46
2019-03-31T05:08:49.642Z,6.27
2019-03-31T05:11:37.933Z,6.08
2019-03-31T05:14:25.966Z,6.33
2019-03-31T05:17:13.960Z,6.38
2019-03-31T05:20:02.088Z,6.14
2019-03-31T05:22:52.704Z,6.18
2019-03-31T05:25:39.535Z,6.09
2019-03-31T05:28:27.694Z,6.10
2019-03-31T05:31:15.821Z,6.10
2019-03-31T05:34:18.089Z,6.15
2019-03-31T05:36:53.266Z,6.03
2019-03-31T05:39:41.679Z,6.05
2019-03-31T05:42:29.996Z,6.24
2019-03-31T05:45:18.072Z,6.64
2019-03-31T05:48:06.564Z,7.42
2019-03-31T05:50:54.772Z,8.26
2019-03-31T05:53:43.018Z,8.55
2019-03-31T05:56:31.287Z,9.05
2019-03-31T05:59:19.083Z,9.20
2019-03-31T06:02:06.830Z,9.18
2019-03-31T06:04:54.777Z,9.21
2019-03-31T06:07:42.929Z,9.24
2019-03-31T06:10:30.969Z,9.69
2019-03-31T06:13:19.203Z,9.77
2019-03-31T06:16:07.548Z,10.25
2019-03-31T06:18:55.869Z,10.10
2019-03-31T06:21:44.142Z,10.06
2019-03-31T06:24:32.438Z,10.08
2019-03-31T06:27:20.642Z,10.92
2019-03-31T06:30:09.379Z,11.98
2019-03-31T06:32:57.724Z,11.79
2019-03-31T06:35:45.957Z,11.05
2019-03-31T06:38:33.934Z,11.13
2019-03-31T06:41:21.969Z,12.15
2019-03-31T06:44:10.489Z,12.82
2019-03-31T06:46:58.609Z,12.77
2019-03-31T06:49:46.891Z,12.66
2019-03-31T06:52:34.997Z,12.71
2019-03-31T06:55:23.178Z,13.05
2019-03-31T06:58:11.418Z,13.99
2019-03-31T07:00:59.861Z,14.54
2019-03-31T07:03:48.004Z,14.04
2019-03-31T07:06:36.185Z,13.68
2019-03-31T07:09:23.883Z,13.40
2019-03-31T07:12:12.299Z,14.61
2019-03-31T07:15:00.343Z,14.75
2019-03-31T07:17:49.339Z,15.66
2019-03-31T07:20:37.610Z,15.59
2019-03-31T07:23:25.665Z,16.46
2019-03-31T07:26:13.721Z,16.28
2019-03-31T07:29:02.033Z,17.45
2019-03-31T07:31:50.426Z,17.67
2019-03-31T07:34:38.558Z,17.20
2019-03-31T07:37:26.563Z,17.90
2019-03-31T07:40:15.176Z,17.84
2019-03-31T07:43:04.064Z,16.78
2019-03-31T07:45:52.001Z,17.00
2019-03-31T07:48:39.851Z,16.26
2019-03-31T07:51:28.067Z,16.19
2019-03-31T07:54:16.633Z,16.35
2019-03-31T07:57:06.985Z,16.48
2019-03-31T07:59:56.551Z,17.37
2019-03-31T08:02:44.455Z,17.06
2019-03-31T08:05:34.881Z,17.18
2019-03-31T08:08:22.259Z,17.30
2019-03-31T08:11:10.393Z,17.21
2019-03-31T08:13:58.151Z,16.91
2019-03-31T08:16:46.376Z,17.51
2019-03-31T08:19:34.290Z,17.28
2019-03-31T08:22:22.614Z,17.37
2019-03-31T08:25:12.299Z,17.43
2019-03-31T08:28:00.729Z,17.73
2019-03-31T08:30:48.772Z,17.62
2019-03-31T08:33:36.938Z,17.16
2019-03-31T08:36:25.373Z,17.17
2019-03-31T08:39:14.529Z,16.50
2019-03-31T08:42:02.784Z,16.50
2019-03-31T08:44:50.446Z,16.20
2019-03-31T08:47:38.685Z,16.18
2019-03-31T08:50:26.905Z,16.14
2019-03-31T08:53:15.365Z,16.38
2019-03-31T08:56:03.446Z,16.62
2019-03-31T08:58:51.689Z,16.38
2019-03-31T09:01:41.315Z,15.70
2019-03-31T09:04:29.896Z,15.05
2019-03-31T09:07:18.551Z,14.67
2019-03-31T09:10:07.361Z,14.65
2019-03-31T09:12:55.816Z,14.69
2019-03-31T09:15:44.199Z,14.56
2019-03-31T09:18:32.624Z,14.63
2019-03-31T09:21:21.006Z,14.73
2019-03-31T09:24:09.259Z,14.61
2019-03-31T09:26:57.427Z,14.57
2019-03-31T09:29:45.788Z,14.65
2019-03-31T09:32:33.963Z,14.87
2019-03-31T09:35:22.075Z,15.13
2019-03-31T09:38:10.407Z,15.08
2019-03-31T09:40:58.781Z,15.02
2019-03-31T09:43:46.922Z,15.29
2019-03-31T09:46:35.946Z,15.41
2019-03-31T09:49:24.314Z,15.62
2019-03-31T09:52:12.732Z,15.75
2019-03-31T09:55:00.815Z,15.61
2019-03-31T09:57:48.592Z,15.52
2019-03-31T10:00:45.163Z,15.44
2019-03-31T10:03:32.880Z,15.52
2019-03-31T10:06:30.003Z,15.56
2019-03-31T10:09:10.933Z,15.09
2019-03-31T10:11:59.373Z,15.28
2019-03-31T10:14:47.661Z,15.46
2019-03-31T10:17:35.692Z,15.63
2019-03-31T10:20:23.844Z,15.74
2019-03-31T10:23:11.918Z,15.42
2019-03-31T10:26:00.206Z,15.44
2019-03-31T10:28:48.559Z,15.20
2019-03-31T10:31:36.660Z,15.44
2019-03-31T10:34:24.934Z,15.50
2019-03-31T10:37:13.214Z,15.87
2019-03-31T10:40:01.386Z,16.08
2019-03-31T10:42:49.574Z,16.10
2019-03-31T10:45:38.206Z,16.22
2019-03-31T10:48:26.168Z,16.43
2019-03-31T10:51:14.119Z,16.32
2019-03-31T10:54:04.601Z,16.41
2019-03-31T10:56:52.616Z,16.14
2019-03-31T10:59:40.485Z,15.91
2019-03-31T11:02:28.628Z,16.29
2019-03-31T11:05:16.946Z,16.38
2019-03-31T11:08:05.869Z,16.64
2019-03-31T11:10:54.276Z,16.77
2019-03-31T11:13:42.587Z,16.91
2019-03-31T11:16:30.782Z,16.97
2019-03-31T11:19:18.957Z,17.23
2019-03-31T11:22:12.155Z,17.00
2019-03-31T11:25:00.683Z,16.98
2019-03-31T11:27:48.690Z,16.99
2019-03-31T11:30:36.893Z,17.12
2019-03-31T11:33:25.207Z,17.22
2019-03-31T11:36:13.567Z,17.05
2019-03-31T11:39:01.903Z,17.09
2019-03-31T11:41:49.866Z,17.02
2019-03-31T11:44:38.109Z,17.13
2019-03-31T11:47:26.118Z,17.11
2019-03-31T11:50:14.303Z,17.06
2019-03-31T11:53:02.330Z,17.14
2019-03-31T11:55:49.991Z,17.09
2019-03-31T11:58:37.990Z,17.37
2019-03-31T12:01:26.029Z,17.29
2019-03-31T12:04:15.493Z,17.49
2019-03-31T12:07:04.019Z,17.75
2019-03-31T12:09:52.000Z,17.58
2019-03-31T12:12:40.107Z,17.70
2019-03-31T12:15:28.157Z,17.77
2019-03-31T12:18:16.643Z,17.76
2019-03-31T12:21:04.736Z,17.76
2019-03-31T12:23:52.946Z,17.49
2019-03-31T12:26:40.921Z,17.67
2019-03-31T12:29:29.312Z,17.80
2019-03-31T12:32:18.043Z,17.85
2019-03-31T12:35:07.033Z,17.93
2019-03-31T12:37:55.520Z,17.93
2019-03-31T12:40:43.705Z,18.19
2019-03-31T12:43:31.821Z,18.13
2019-03-31T12:46:19.828Z,18.00
2019-03-31T12:49:07.965Z,18.02
2019-03-31T12:51:55.573Z,17.61
2019-03-31T12:54:43.885Z,17.81
2019-03-31T12:57:31.838Z,17.96
2019-03-31T13:00:20.518Z,18.12
2019-03-31T13:03:08.816Z,18.37
2019-03-31T13:05:57.057Z,18.42
2019-03-31T13:08:45.082Z,18.14
2019-03-31T13:11:33.552Z,18.27
2019-03-31T13:14:21.577Z,18.20
2019-03-31T13:17:09.507Z,18.05
2019-03-31T13:19:57.567Z,18.24
2019-03-31T13:22:46.125Z,18.39
2019-03-31T13:25:34.124Z,18.41
2019-03-31T13:28:22.034Z,18.34
2019-03-31T13:31:10.406Z,18.29
2019-03-31T13:33:58.614Z,18.32
2019-03-31T13:36:46.967Z,18.50
2019-03-31T13:39:35.088Z,18.17
2019-03-31T13:42:23.575Z,18.15
2019-03-31T13:45:11.839Z,18.19
2019-03-31T13:47:59.780Z,18.18
2019-03-31T13:50:47.887Z,18.05
2019-03-31T13:53:35.821Z,18.35
2019-03-31T13:56:23.845Z,18.42
2019-03-31T13:59:11.941Z,18.37
2019-03-31T14:02:00.335Z,18.36
2019-03-31T14:04:51.849Z,18.39
2019-03-31T14:07:38.305Z,18.56
2019-03-31T14:10:26.199Z,18.54
2019-03-31T14:13:14.141Z,18.57
2019-03-31T14:16:02.235Z,18.54
2019-03-31T14:18:51.375Z,18.59
2019-03-31T14:21:40.172Z,18.57
2019-03-31T14:24:28.396Z,18.63
2019-03-31T14:27:16.544Z,18.73
2019-03-31T14:30:05.380Z,18.75
2019-03-31T14:32:53.622Z,18.57
2019-03-31T14:35:41.763Z,18.81
2019-03-31T14:38:40.003Z,18.84
2019-03-31T14:41:19.510Z,18.72
2019-03-31T14:44:07.450Z,18.70
2019-03-31T14:46:55.482Z,18.99
2019-03-31T14:49:43.830Z,19.00
2019-03-31T14:52:31.615Z,18.73
2019-03-31T14:55:19.388Z,18.79
2019-03-31T14:58:08.508Z,18.82
2019-03-31T15:00:56.484Z,18.62
2019-03-31T15:03:44.829Z,18.63
2019-03-31T15:06:32.498Z,18.66
2019-03-31T15:09:20.380Z,18.73
2019-03-31T15:12:08.321Z,18.72
2019-03-31T15:14:56.496Z,18.60
2019-03-31T15:17:44.728Z,18.51
2019-03-31T15:20:32.996Z,18.37
2019-03-31T15:23:29.105Z,18.50
2019-03-31T15:26:11.040Z,18.48
2019-03-31T15:28:59.410Z,18.47
2019-03-31T15:31:48.276Z,18.53
2019-03-31T15:34:36.714Z,18.50
2019-03-31T15:37:25.104Z,18.38
2019-03-31T15:40:13.316Z,18.36
2019-03-31T15:43:01.492Z,18.28
2019-03-31T15:45:49.398Z,18.31
2019-03-31T15:48:37.469Z,18.21
2019-03-31T15:51:25.511Z,18.19
2019-03-31T15:54:13.375Z,18.14
2019-03-31T15:57:01.399Z,18.11
2019-03-31T15:59:52.733Z,18.10
2019-03-31T16:02:40.810Z,18.11
2019-03-31T16:05:28.999Z,18.04
2019-03-31T16:08:16.445Z,18.15
2019-03-31T16:11:04.905Z,18.21
2019-03-31T16:13:52.650Z,18.15
2019-03-31T16:16:40.090Z,18.18
2019-03-31T16:19:27.620Z,18.11
2019-03-31T16:22:15.102Z,18.12
2019-03-31T16:25:03.541Z,18.02
2019-03-31T16:27:50.636Z,17.89
2019-03-31T16:30:38.524Z,17.85
2019-03-31T16:33:26.313Z,17.81
2019-03-31T16:36:13.512Z,17.69
2019-03-31T16:39:00.631Z,17.73
2019-03-31T16:41:48.790Z,17.80
2019-03-31T16:44:36.218Z,17.64
2019-03-31T16:47:24.069Z,17.58
2019-03-31T16:50:12.459Z,17.60
2019-03-31T16:52:59.923Z,17.57
2019-03-31T16:55:47.562Z,17.52
2019-03-31T16:58:35.194Z,17.51
2019-03-31T17:01:22.840Z,17.50
2019-03-31T17:04:10.830Z,17.45
2019-03-31T17:06:58.452Z,17.49
2019-03-31T17:09:51.753Z,17.36
2019-03-31T17:12:35.559Z,17.41
2019-03-31T17:15:23.390Z,17.35
2019-03-31T17:18:10.709Z,17.23
2019-03-31T17:20:58.276Z,17.18
2019-03-31T17:23:45.743Z,17.03
2019-03-31T17:26:33.338Z,17.00
2019-03-31T17:29:23.666Z,16.87
2019-03-31T17:32:11.994Z,16.77
2019-03-31T17:35:01.184Z,16.63
2019-03-31T17:37:48.644Z,16.48
2019-03-31T17:40:36.279Z,16.60
2019-03-31T17:43:23.718Z,16.33
2019-03-31T17:46:10.866Z,16.30
2019-03-31T17:48:59.072Z,16.35
2019-03-31T17:51:49.343Z,16.27
2019-03-31T17:54:39.456Z,16.27
2019-03-31T17:57:27.884Z,16.28
2019-03-31T18:00:15.998Z,16.08
2019-03-31T18:03:03.775Z,16.03
2019-03-31T18:05:51.161Z,15.81
2019-03-31T18:08:42.297Z,15.90
2019-03-31T18:11:32.322Z,15.80
2019-03-31T18:14:19.774Z,15.85
2019-03-31T18:17:07.611Z,15.84
2019-03-31T18:19:55.571Z,15.67
2019-03-31T18:22:46.458Z,15.60
2019-03-31T18:25:34.110Z,15.51
2019-03-31T18:28:22.041Z,15.41
2019-03-31T18:31:10.332Z,15.54
2019-03-31T18:33:57.977Z,15.45
2019-03-31T18:36:45.672Z,15.41
2019-03-31T18:39:33.165Z,15.27
2019-03-31T18:42:20.384Z,15.01
2019-03-31T18:45:07.956Z,15.12
2019-03-31T18:47:55.377Z,15.09
2019-03-31T18:50:43.220Z,14.94
2019-03-31T18:53:55.877Z,15.09
2019-03-31T18:57:08.415Z,14.93
2019-03-31T19:00:16.168Z,14.91
2019-03-31T19:03:21.624Z,14.78
2019-03-31T19:06:22.456Z,14.81
2019-03-31T19:09:34.813Z,14.73
2019-03-31T19:12:32.716Z,14.65
2019-03-31T19:15:48.707Z,14.69
2019-03-31T19:18:49.225Z,14.59
2019-03-31T19:22:11.168Z,14.67
2019-03-31T19:25:16.577Z,14.51
2019-03-31T19:28:33.715Z,14.47
2019-03-31T19:31:28.326Z,14.31
2019-03-31T19:34:26.711Z,14.15
2019-03-31T19:37:45.366Z,14.20
2019-03-31T19:41:03.305Z,14.39
2019-03-31T19:44:01.116Z,14.17
2019-03-31T19:47:03.991Z,13.96
2019-03-31T19:50:05.548Z,13.96
2019-03-31T19:53:13.176Z,13.99
2019-03-31T19:56:10.690Z,14.07
2019-03-31T19:59:18.022Z,14.07
2019-03-31T20:02:25.461Z,14.19
2019-03-31T20:05:27.366Z,14.04
2019-03-31T20:08:36.153Z,13.99
2019-03-31T20:12:01.062Z,13.97
2019-03-31T20:15:20.320Z,13.96
2019-03-31T20:18:32.863Z,13.85
2019-03-31T20:21:32.360Z,13.84
2019-03-31T20:24:26.493Z,13.75
2019-03-31T20:27:40.502Z,13.84
2019-03-31T20:30:50.068Z,13.77
2019-03-31T20:33:46.997Z,13.71
2019-03-31T20:36:59.872Z,13.64
2019-03-31T20:40:11.864Z,13.65
2019-03-31T20:43:15.331Z,13.54
2019-03-31T20:46:04.552Z,13.67
2019-03-31T20:48:52.481Z,13.44
2019-03-31T20:51:40.102Z,13.39
2019-03-31T20:54:27.563Z,13.37
2019-03-31T20:57:15.864Z,13.30
2019-03-31T21:00:04.057Z,13.28
2019-03-31T21:02:51.888Z,13.24
2019-03-31T21:05:39.020Z,13.38
2019-03-31T21:08:26.290Z,13.38
2019-03-31T21:11:13.986Z,13.18
2019-03-31T21:14:01.515Z,13.11
2019-03-31T21:16:48.712Z,12.95
2019-03-31T21:19:36.199Z,13.14
2019-03-31T21:22:24.071Z,13.02
2019-03-31T21:25:13.677Z,13.03
2019-03-31T21:28:00.818Z,13.11
2019-03-31T21:30:48.589Z,12.84
2019-03-31T21:33:36.259Z,12.67
2019-03-31T21:36:24.326Z,12.84
2019-03-31T21:39:12.076Z,12.94
2019-03-31T21:41:59.792Z,12.95
2019-03-31T21:44:47.041Z,12.89
2019-03-31T21:47:34.748Z,12.75
2019-03-31T21:50:22.902Z,12.62
2019-03-31T21:53:10.679Z,12.69
2019-03-31T21:55:57.899Z,12.71
2019-03-31T21:58:45.541Z,12.81
2019-03-31T22:01:33.323Z,12.64
2019-03-31T22:04:20.955Z,12.64
2019-03-31T22:07:08.352Z,12.62
2019-03-31T22:09:55.945Z,12.55
2019-03-31T22:12:43.612Z,12.46
2019-03-31T22:15:31.336Z,12.41
2019-03-31T22:18:19.364Z,12.53
2019-03-31T22:21:06.708Z,12.49
2019-03-31T22:23:58.226Z,12.47
2019-03-31T22:26:43.148Z,12.47
2019-03-31T22:29:30.597Z,12.28
2019-03-31T22:32:17.961Z,12.15
2019-03-31T22:35:05.802Z,12.04
2019-03-31T22:37:53.338Z,12.01
2019-03-31T22:40:40.435Z,12.01
2019-03-31T22:43:28.198Z,12.03
2019-03-31T22:46:15.366Z,12.03
2019-03-31T22:49:02.841Z,12.01
2019-03-31T22:51:50.658Z,11.99
2019-03-31T22:54:38.096Z,12.10
2019-03-31T22:57:25.874Z,11.81
2019-03-31T23:00:20.358Z,11.74
2019-03-31T23:03:07.976Z,11.77
2019-03-31T23:05:55.363Z,11.83
2019-03-31T23:08:42.970Z,11.71
2019-03-31T23:11:30.435Z,11.79
2019-03-31T23:14:18.231Z,11.71
2019-03-31T23:17:05.406Z,11.66
2019-03-31T23:19:52.904Z,11.56
2019-03-31T23:22:40.416Z,11.68
2019-03-31T23:25:27.596Z,11.68
2019-03-31T23:28:15.504Z,11.56
2019-03-31T23:31:03.806Z,11.45
2019-03-31T23:33:52.723Z,11.40
2019-03-31T23:36:40.768Z,11.51
2019-03-31T23:39:28.611Z,11.44
2019-03-31T23:42:16.075Z,11.44
2019-03-31T23:45:03.941Z,11.52
2019-03-31T23:47:51.592Z,11.49
2019-03-31T23:50:39.073Z,11.51
2019-03-31T23:53:26.762Z,11.46
2019-03-31T23:56:13.848Z,11.37
2019-03-31T23:59:01.395Z,11.44
